Terminal Aerodrome Forecast
Issued by NWS Goodland, KS

Home | Current Version | Previous Version | Text Only | Print | Product List | Glossary On
Versions: 1 2 3 4 5 6 7 8 9 10 11 12 13 14 15 16 17 18 19
832
FTUS43 KGLD 251736
TAFGLD
TAF
KGLD 251736Z 2518/2618 34012G20KT P6SM SKC
     FM260000 VRB04KT P6SM SKC
     FM260300 18008KT P6SM SKC
     FM260800 22012KT P6SM SKC
     FM261200 34022G30KT P6SM FEW035 SCT150 WS019/35045KT
     FM261500 35029G37KT P6SM FEW025 SCT110=

USA.gov is the U.S. government's official web portal to all federal, state and local government web resources and services.